Latest Coastal Weather Observations for Point Stuart

IDD60701

Issued at 2:21 am CST Sunday 31 May 2015 (issued every 10 minutes, with the page automatically refreshed every 10 minutes)

About coastal observations | Map of coastal stations | Coastal observations for NT | Marine services | Other Formats
Station Details ID: 014254 Name: POINT STUART Lat: -12.24 Lon: 131.88 Height: 1.0 m
Data from the previous 72 hours. | See also: Recent months for locations in Northern Territory
Date/Time
CST
Temp

°C
Wind Pressure Rain
since 9am
mm
Weather Cloud Vis
km
Sea
Height
m
Swell
Dir
 
Speed
knots
Gust
knots
hPa Trend Height
m
Period
s
Dir
31/02:00am 24.1 ENE 6 8 1011.3 - 7.6 - - - - - - -
31/01:30am 24.1 ENE 6 7 1011.4 - 7.4 - - - - - - -
31/01:00am 24.3 E 7 9 1011.6 - 7.4 - - - - - - -
31/12:30am 24.1 ESE 8 11 1012.1 - 7.2 - - - - - - -
31/12:00am 24.2 E 8 11 1012.4 - 7.2 - - - - - - -
 
Date/Time
CST
Temp

°C
Wind Pressure Rain
since 9am
mm
Weather Cloud Vis
km
Sea
Height
m
Swell
Dir
 
Speed
knots
Gust
knots
hPa Trend Height
m
Period
s
Dir
30/11:30pm 24.3 E 10 13 1012.6 - 7.2 - - - - - - -
30/11:00pm 24.3 E 9 13 1013.2 - 7.2 - - - - - - -
30/10:30pm 24.3 ESE 10 14 1013.4 - 7.0 - - - - - - -
30/10:00pm 24.5 E 9 13 1013.2 - 7.0 - - - - - - -
30/09:30pm 24.6 E 11 15 1013.3 - 6.8 - - - - - - -
30/09:00pm 24.3 E 11 16 1013.0 - 6.8 - - - - - - -
30/08:30pm 24.3 ESE 12 16 1012.5 - 6.6 - - - - - - -
30/08:00pm 24.3 ESE 10 13 1012.1 - 6.6 - - - - - - -
30/07:30pm 24.3 NE 10 15 1011.8 - 6.6 - - - - - - -
30/07:00pm 25.0 NNE 12 16 1011.5 - 6.6 - - - - - - -
30/06:30pm 25.1 NNE 11 14 1011.3 - 6.4 - - - - - - -
30/06:00pm 24.8 N 9 14 1011.2 - 6.4 - - - - - - -
30/05:30pm 24.3 NNE 13 21 1011.0 - 5.6 - - - - - - -
30/05:13pm 24.0 ENE 18 26 1011.0 - 3.6 - - - - - - -
30/05:08pm 24.0 N 20 29 1010.9 - 2.6 - - - - - - -
30/05:06pm 24.3 ENE 22 31 1010.8 - 2.0 - - - - - - -
30/05:01pm 24.7 N 21 31 1010.7 - 1.6 - - - - - - -
30/05:00pm 24.7 N 22 31 1010.7 - 1.6 - - - - - - -
30/04:57pm 25.0 N 21 28 1010.6 - 1.6 - - - - - - -
30/04:54pm 25.1 ENE 22 27 1010.6 - 1.6 - - - - - - -
30/04:52pm 25.3 N 22 27 1010.6 - 1.6 - - - - - - -
30/04:30pm 27.0 N 10 12 1010.4 - 0.0 - - - - - - -
30/04:00pm 26.8 ENE 7 11 1009.9 - 0.0 - - - - - - -
30/03:30pm 28.0 ENE 8 12 1010.2 - 0.0 - - - - - - -
30/03:00pm 28.8 ENE 7 11 1010.4 - 0.0 - - - - - - -
30/02:30pm 29.2 NE 8 9 1010.8 - 0.0 - - - - - - -
30/02:00pm 29.9 NE 8 9 1011.1 - 0.0 - - - - - - -
30/01:30pm 30.0 E 10 12 1011.4 - 0.0 - - - - - - -
30/01:00pm 30.0 E 10 14 1011.8 - 0.0 - - - - - - -
30/12:30pm 30.1 E 10 15 1011.6 - 0.0 - - - - - - -
30/12:00pm 30.2 E 12 17 1011.8 - 0.0 - - - - - - -
30/11:30am 29.9 NNE 13 19 1012.1 - 0.0 - - - - - - -
30/11:00am 29.8 E 12 17 1012.1 - 0.0 - - - - - - -
30/10:30am 29.1 ESE 11 18 1012.2 - 0.0 - - - - - - -
30/10:00am 28.4 ENE 9 13 1012.9 - 0.0 - - - - - - -
30/09:30am 27.5 ESE 8 11 1013.0 - 0.0 - - - - - - -
30/09:00am 26.9 ESE 9 12 1012.9 - 0.0 - - - - - - -
30/08:30am 26.3 ESE 8 11 1013.1 - 0.0 - - - - - - -
30/08:00am 25.9 ESE 7 10 1013.0 - 0.0 - - - - - - -
30/07:30am 25.7 SE 8 11 1012.4 - 0.0 - - - - - - -
30/07:00am 25.9 ESE 9 11 1012.4 - 0.0 - - - - - - -
30/06:30am 26.1 ESE 10 13 1012.2 - 0.0 - - - - - - -
30/06:00am 25.6 ESE 9 12 1012.0 - 0.0 - - - - - - -
30/05:30am 25.0 ESE 7 9 1011.9 - 0.0 - - - - - - -
30/05:00am 24.8 SE 7 9 1011.8 - 0.0 - - - - - - -
30/04:30am 24.9 SSE 6 8 1011.8 - 0.0 - - - - - - -
30/04:00am 24.5 S 5 6 1011.9 - 0.0 - - - - - - -
30/03:30am 24.8 S 5 6 1011.8 - 0.0 - - - - - - -
30/03:00am 24.8 S 6 7 1011.8 - 0.0 - - - - - - -
30/02:30am 24.7 S 5 6 1012.1 - 0.0 - - - - - - -
30/02:00am 24.9 S 4 5 1012.3 - 0.0 - - - - - - -
30/01:30am 25.2 SSE 4 5 1012.4 - 0.0 - - - - - - -
30/01:00am 25.1 SSE 5 6 1012.5 - 0.0 - - - - - - -
30/12:30am 25.8 SSE 3 4 1012.8 - 0.0 - - - - - - -
30/12:00am 26.1 SE 4 4 1012.8 - 0.0 - - - - - - -
 
Date/Time
CST
Temp

°C
Wind Pressure Rain
since 9am
mm
Weather Cloud Vis
km
Sea
Height
m
Swell
Dir
 
Speed
knots
Gust
knots
hPa Trend Height
m
Period
s
Dir
29/11:30pm 26.4 SSE 5 6 1012.9 - 0.0 - - - - - - -
29/11:00pm 26.3 SE 5 6 1012.9 - 0.0 - - - - - - -
29/10:30pm 26.6 SE 5 7 1012.6 - 0.0 - - - - - - -
29/10:00pm 27.2 ESE 6 8 1012.6 - 0.0 - - - - - - -
29/09:30pm 27.6 ESE 4 5 1012.7 - 0.0 - - - - - - -
29/09:00pm 27.9 NE 4 6 1012.8 - 0.0 - - - - - - -
29/08:30pm 28.1 NNE 4 5 1012.7 - 0.0 - - - - - - -
29/08:00pm 28.1 N 4 6 1012.5 - 0.0 - - - - - - -
29/07:30pm 27.9 NNE 1 3 1012.3 - 0.0 - - - - - - -
29/07:00pm 27.9 NNE 5 7 1012.2 - 0.0 - - - - - - -
29/06:30pm 28.2 N 3 5 1011.6 - 0.0 - - - - - - -
29/06:00pm 28.9 N 5 7 1011.3 - 0.0 - - - - - - -
29/05:30pm 29.4 N 7 10 1011.0 - 0.0 - - - - - - -
29/05:00pm 30.1 NE 9 12 1010.7 - 0.0 - - - - - - -
29/04:30pm 30.8 NE 10 14 1010.5 - 0.0 - - - - - - -
29/04:00pm 31.5 NE 8 13 1010.4 - 0.0 - - - - - - -
29/03:30pm 32.1 ENE 8 11 1010.7 - 0.0 - - - - - - -
29/03:00pm 31.4 E 9 13 1010.9 - 0.0 - - - - - - -
29/02:30pm 30.6 E 10 12 1011.2 - 0.0 - - - - - - -
29/02:00pm 30.4 N 11 15 1011.7 - 0.0 - - - - - - -
29/01:30pm 30.5 N 9 13 1011.8 - 0.0 - - - - - - -
29/01:00pm 30.8 ENE 11 15 1012.2 - 0.0 - - - - - - -
29/12:30pm 30.9 N 10 13 1012.8 - 0.0 - - - - - - -
29/12:00pm 31.0 ENE 12 16 1013.3 - 0.0 - - - - - - -
29/11:30am 30.8 ENE 13 19 1013.6 - 0.0 - - - - - - -
29/11:00am 31.1 E 11 16 1014.0 - 0.0 - - - - - - -
29/10:30am 30.2 E 12 16 1014.2 - 0.0 - - - - - - -
29/10:00am 29.4 ESE 12 15 1014.3 - 0.0 - - - - - - -
29/09:30am 28.6 ESE 9 13 1014.3 - 0.0 - - - - - - -
29/09:00am 26.7 E 7 9 1014.3 - 0.0 - - - - - - -
29/08:30am 24.7 SSE 5 7 1014.2 - 0.0 - - - - - - -
29/08:00am 22.3 S 5 5 1013.7 - 0.0 - - - - - - -
29/07:30am 20.6 S 4 6 1013.2 - 0.0 - - - - - - -
29/07:00am 19.8 SSW 5 7 1012.9 - 0.0 - - - - - - -
29/06:30am 20.0 ESE 1 6 1012.7 - 0.0 - - - - - - -
29/06:00am 20.5 CALM 0 0 1012.7 - 0.0 - - - - - - -
29/05:30am 20.5 CALM 0 0 1012.7 - 0.0 - - - - - - -
29/05:00am 20.7 CALM 0 0 1012.6 - 0.0 - - - - - - -
29/04:30am 20.9 CALM 0 0 1012.5 - 0.0 - - - - - - -
29/04:00am 20.7 SSW 4 5 1012.5 - 0.0 - - - - - - -
29/03:30am 21.6 CALM 0 0 1012.3 - 0.0 - - - - - - -
29/03:00am 22.0 SSE 2 3 1012.2 - 0.0 - - - - - - -
29/02:30am 22.1 S 3 5 1012.4 - 0.0 - - - - - - -
29/02:00am 22.0 S 4 5 1012.5 - 0.0 - - - - - - -
29/01:30am 21.8 SSW 3 6 1012.6 - 0.0 - - - - - - -
29/01:00am 22.5 CALM 0 0 1012.7 - 0.0 - - - - - - -
29/12:30am 22.7 S 4 4 1012.7 - 0.0 - - - - - - -
29/12:00am 22.2 S 5 6 1012.7 - 0.0 - - - - - - -
 
Date/Time
CST
Temp

°C
Wind Pressure Rain
since 9am
mm
Weather Cloud Vis
km
Sea
Height
m
Swell
Dir
 
Speed
knots
Gust
knots
hPa Trend Height
m
Period
s
Dir
28/11:30pm 22.2 NNE 3 4 1012.7 - 0.0 - - - - - - -
28/11:00pm 22.0 N 4 4 1012.9 - 0.0 - - - - - - -
28/10:30pm 22.5 N 3 4 1012.8 - 0.0 - - - - - - -
28/10:00pm 23.0 CALM 0 0 1012.8 - 0.0 - - - - - - -
28/09:30pm 23.2 CALM 0 0 1012.6 - 0.0 - - - - - - -
28/09:00pm 23.6 CALM 0 0 1012.6 - 0.0 - - - - - - -
28/08:30pm 23.6 N 3 4 1012.4 - 0.0 - - - - - - -
28/08:00pm 23.5 N 4 5 1012.0 - 0.0 - - - - - - -
28/07:30pm 24.7 N 4 5 1011.8 - 0.0 - - - - - - -
28/07:00pm 25.8 CALM 0 0 1011.5 - 0.0 - - - - - - -
28/06:30pm 27.4 CALM 0 0 1011.4 - 0.0 - - - - - - -
28/06:00pm 28.9 N 1 4 1011.2 - 0.0 - - - - - - -
28/05:30pm 30.3 NNE 4 6 1010.8 - 0.0 - - - - - - -
28/05:00pm 30.9 NNE 4 7 1010.6 - 0.0 - - - - - - -
28/04:30pm 31.2 NNE 5 8 1010.6 - 0.0 - - - - - - -
28/04:00pm 31.4 NNE 6 9 1010.6 - 0.0 - - - - - - -
28/03:30pm 31.1 NNE 6 8 1010.6 - 0.0 - - - - - - -
28/03:00pm 31.1 NNE 8 11 1010.8 - 0.0 - - - - - - -
28/02:30pm 31.8 NE 9 13 1011.1 - 0.0 - - - - - - -
28/02:00pm 30.8 NE 11 15 1011.5 - 0.0 - - - - - - -
28/01:30pm 31.2 NE 10 15 1011.9 - 0.0 - - - - - - -
28/01:00pm 30.6 NE 10 15 1012.4 - 0.0 - - - - - - -
28/12:30pm 30.2 NE 12 16 1013.0 - 0.0 - - - - - - -
28/12:00pm 30.8 N 9 14 1013.3 - 0.0 - - - - - - -
28/11:30am 30.3 N 10 14 1013.8 - 0.0 - - - - - - -
28/11:00am 29.4 ENE 9 12 1013.8 - 0.0 - - - - - - -
28/10:30am 29.1 ENE 10 15 1014.1 - 0.0 - - - - - - -
28/10:00am 28.8 E 9 13 1014.3 - 0.0 - - - - - - -
28/09:30am 27.2 E 9 12 1014.5 - 0.0 - - - - - - -
28/09:00am 26.2 E 8 11 1014.2 - 0.0 - - - - - - -
28/08:30am 25.1 ENE 6 9 1013.9 - 0.0 - - - - - - -
28/08:00am 23.3 ESE 3 4 1013.5 - 0.0 - - - - - - -
28/07:30am 21.7 SE 2 3 1013.2 - 0.0 - - - - - - -
28/07:00am 21.2 CALM 0 4 1012.7 - 0.0 - - - - - - -
28/06:30am 20.9 CALM 0 0 1012.4 - 0.0 - - - - - - -
28/06:00am 22.0 SSE 3 4 1012.1 - 0.0 - - - - - - -
28/05:30am 21.7 S 4 5 1011.9 - 0.0 - - - - - - -
28/05:00am 22.3 SE 4 4 1011.8 - 0.0 - - - - - - -
28/04:30am 22.5 ESE 4 5 1011.7 - 0.0 - - - - - - -
28/04:00am 22.8 N 4 5 1011.5 - 0.0 - - - - - - -
28/03:30am 23.1 ESE 4 5 1011.6 - 0.0 - - - - - - -
28/03:00am 23.2 ESE 4 5 1011.7 - 0.0 - - - - - - -
28/02:30am 24.7 E 3 4 1011.8 - 0.0 - - - - - - -

Other Formats:

Comma delimited format used in spreadsheet applications
http://www.bom.gov.au/fwo/IDD60701/IDD60701.94127.axf

JavaScript Object Notation format (JSON) in row-major order
http://www.bom.gov.au/fwo/IDD60701/IDD60701.94127.json